Time;durP1;ratioP1;P1;durP2;ratioP2;P2;SDS_P1;SDS_P2;PMS_P1;PMS_P2;Temp;Humidity;BMP_temperature;BMP_pressure;BME280_temperature;BME280_humidity;BME280_pressure;Samples;Min_cycle;Max_cycle;Signal;HPM_P1;HPM_P2
2021/06/23 00:01:02;;;;;;;10.30;9.43;;;20.60;82.00;;;;;;5024441;28;20219;-87
2021/06/23 00:03:28;;;;;;;10.63;8.63;;;20.50;82.50;;;;;;5043223;28;20181;-87
2021/06/23 00:05:54;;;;;;;8.70;7.78;;;20.30;83.80;;;;;;5025232;28;20184;-87
2021/06/23 00:08:20;;;;;;;8.85;8.13;;;20.10;85.10;;;;;;5043022;28;20181;-88
2021/06/23 00:10:47;;;;;;;9.98;8.65;;;20.10;84.70;;;;;;5008510;28;20188;-88
2021/06/23 00:13:14;;;;;;;10.23;9.25;;;20.20;84.20;;;;;;5042875;28;20179;-89
2021/06/23 00:15:40;;;;;;;8.95;8.07;;;20.30;83.80;;;;;;5025110;28;20183;-88
2021/06/23 00:18:06;;;;;;;8.00;7.20;;;20.30;84.00;;;;;;5043369;28;20325;-88
2021/06/23 00:20:33;;;;;;;8.75;8.05;;;20.30;84.30;;;;;;5025448;28;20689;-88
2021/06/23 00:22:58;;;;;;;9.10;8.20;;;20.40;83.60;;;;;;5042964;28;20249;-89
2021/06/23 00:25:24;;;;;;;8.50;7.70;;;20.60;83.90;;;;;;5025065;28;20174;-88
2021/06/23 00:27:50;;;;;;;8.73;7.85;;;20.70;82.50;;;;;;5042565;28;20183;-89
2021/06/23 00:30:17;;;;;;;10.98;8.10;;;20.70;82.10;;;;;;5042343;28;20196;-88
2021/06/23 00:32:44;;;;;;;8.35;7.53;;;20.70;81.80;;;;;;5042471;28;20200;-89
2021/06/23 00:35:11;;;;;;;8.30;6.97;;;20.70;82.20;;;;;;5008804;28;20188;-88
2021/06/23 00:37:38;;;;;;;9.00;8.20;;;20.70;82.20;;;;;;5043163;28;20276;-89
2021/06/23 00:40:06;;;;;;;9.57;8.77;;;20.70;82.00;;;;;;5024931;28;20200;-88
2021/06/23 00:42:33;;;;;;;8.57;7.88;;;20.80;81.80;;;;;;5042390;28;20279;-88
2021/06/23 00:45:01;;;;;;;8.65;7.88;;;20.60;81.40;;;;;;5025183;28;20188;-88
2021/06/23 00:47:27;;;;;;;8.38;7.65;;;20.50;82.10;;;;;;5008781;28;20224;-88
2021/06/23 00:49:53;;;;;;;8.32;7.63;;;20.40;82.90;;;;;;5042908;28;20180;-89
2021/06/23 00:52:19;;;;;;;10.80;9.25;;;20.40;83.70;;;;;;5042533;28;20200;-88
2021/06/23 00:54:50;;;;;;;9.65;8.90;;;20.30;84.70;;;;;;5042994;28;20181;-89
2021/06/23 00:57:18;;;;;;;9.63;8.70;;;20.20;84.20;;;;;;5042614;28;20173;-88
2021/06/23 00:59:45;;;;;;;13.30;10.65;;;20.00;85.10;;;;;;5042739;28;20197;-89
2021/06/23 01:02:12;;;;;;;10.45;9.55;;;19.70;86.20;;;;;;5042847;28;20290;-88
2021/06/23 01:04:38;;;;;;;12.60;11.30;;;19.40;88.10;;;;;;5042569;28;20181;-88
2021/06/23 01:07:05;;;;;;;9.95;9.15;;;19.40;88.60;;;;;;5008299;28;20276;-88
2021/06/23 01:09:30;;;;;;;9.30;8.50;;;19.50;88.50;;;;;;5023956;28;20292;-88
2021/06/23 01:12:05;;;;;;;11.27;10.15;;;19.80;87.20;;;;;;5024557;28;20719;-89
2021/06/23 01:14:33;;;;;;;12.20;11.10;;;20.00;86.40;;;;;;5024706;28;20604;-88
2021/06/23 01:17:01;;;;;;;10.70;9.60;;;20.10;84.80;;;;;;5027907;28;20189;-88
2021/06/23 01:19:32;;;;;;;12.60;10.77;;;20.10;85.30;;;;;;5046011;28;20204;-88
2021/06/23 01:21:58;;;;;;;12.77;10.93;;;20.00;85.20;;;;;;5028058;28;20193;-88
2021/06/23 01:24:23;;;;;;;11.75;10.65;;;20.00;85.30;;;;;;5043863;28;20192;-89
2021/06/23 01:26:49;;;;;;;12.90;10.82;;;19.90;85.90;;;;;;5043601;28;20173;-89
2021/06/23 01:29:14;;;;;;;10.57;9.75;;;20.00;85.70;;;;;;5025873;28;20198;-90
2021/06/23 01:31:40;;;;;;;11.52;10.52;;;20.00;85.60;;;;;;5043480;28;20220;-89
2021/06/23 01:34:06;;;;;;;10.60;9.82;;;19.90;85.60;;;;;;5043552;28;20659;-89
2021/06/23 01:36:33;;;;;;;10.48;9.48;;;19.80;86.30;;;;;;5043202;28;20177;-89
2021/06/23 01:38:59;;;;;;;11.52;10.32;;;19.80;86.30;;;;;;5043112;28;20201;-89
2021/06/23 01:41:25;;;;;;;11.15;10.25;;;20.00;85.70;;;;;;5042966;28;20200;-89
2021/06/23 01:43:51;;;;;;;13.20;11.98;;;20.00;85.40;;;;;;5009243;28;20191;-89
2021/06/23 01:46:17;;;;;;;12.55;11.30;;;20.00;85.30;;;;;;5043068;28;20197;-89
2021/06/23 01:48:43;;;;;;;12.93;11.80;;;19.60;86.90;;;;;;5043533;28;20734;-89
2021/06/23 01:51:08;;;;;;;12.60;11.45;;;19.50;87.60;;;;;;5025442;28;20296;-89
2021/06/23 01:53:35;;;;;;;13.05;11.65;;;19.40;88.50;;;;;;5043213;28;20286;-89
2021/06/23 01:56:02;;;;;;;12.52;11.43;;;19.40;88.80;;;;;;5043011;28;20211;-89
2021/06/23 01:58:28;;;;;;;12.80;11.65;;;19.40;88.50;;;;;;5042948;28;20197;-88
2021/06/23 02:01:09;;;;;;;13.45;12.25;;;19.50;88.60;;;;;;5008835;28;20267;-88
2021/06/23 02:03:34;;;;;;;14.70;13.25;;;19.40;88.80;;;;;;5042948;28;20202;-89
2021/06/23 02:06:08;;;;;;;13.07;12.00;;;19.40;89.10;;;;;;5043389;28;20172;-89
2021/06/23 02:09:17;;;;;;;10.68;9.77;;;19.40;89.10;;;;;;5043121;28;20177;-89
2021/06/23 02:11:47;;;;;;;11.80;10.65;;;19.50;88.90;;;;;;5024732;28;20243;-89
2021/06/23 02:14:37;;;;;;;12.50;11.40;;;19.70;87.90;;;;;;5043282;28;20840;-89
2021/06/23 02:17:06;;;;;;;15.05;13.85;;;19.90;86.90;;;;;;5043319;28;20536;-89
2021/06/23 02:19:37;;;;;;;14.65;13.27;;;19.80;86.80;;;;;;5042877;28;20201;-89
2021/06/23 02:22:03;;;;;;;15.80;14.30;;;19.70;87.70;;;;;;5043856;28;20200;-89
2021/06/23 02:24:29;;;;;;;16.73;13.50;;;19.70;88.20;;;;;;5024540;28;20190;-89
2021/06/23 02:26:56;;;;;;;13.60;12.40;;;19.60;88.30;;;;;;5041952;28;20180;-89
2021/06/23 02:29:22;;;;;;;15.70;14.35;;;19.70;88.50;;;;;;5043524;28;20181;-89
2021/06/23 02:31:51;;;;;;;15.98;14.50;;;19.70;87.80;;;;;;5049410;28;20200;-88
2021/06/23 02:34:17;;;;;;;14.75;13.45;;;19.70;87.70;;;;;;5053827;28;20219;-88
2021/06/23 02:36:43;;;;;;;15.68;14.30;;;19.70;88.90;;;;;;5028996;28;20184;-89
2021/06/23 02:39:10;;;;;;;20.45;15.85;;;19.80;87.70;;;;;;5051562;28;20212;-89
2021/06/23 02:41:37;;;;;;;19.13;17.38;;;19.90;89.50;;;;;;5059420;28;20188;-89
2021/06/23 02:44:04;;;;;;;21.00;19.00;;;19.90;88.10;;;;;;5042066;28;20241;-89
2021/06/23 02:46:30;;;;;;;21.10;19.15;;;19.70;90.20;;;;;;5058917;28;20173;-91
2021/06/23 02:48:58;;;;;;;20.33;18.58;;;19.50;91.40;;;;;;5059331;28;20173;-92
2021/06/23 02:51:27;;;;;;;17.17;15.55;;;19.20;91.90;;;;;;5043014;28;20184;-90
2021/06/23 02:53:55;;;;;;;18.77;16.92;;;19.20;94.10;;;;;;5042919;28;20180;-91
2021/06/23 02:56:22;;;;;;;18.83;17.05;;;19.30;93.70;;;;;;5024200;28;20172;-91
2021/06/23 02:58:49;;;;;;;17.58;16.02;;;19.40;92.00;;;;;;5041628;28;20223;-91
2021/06/23 03:01:15;;;;;;;17.88;16.30;;;19.40;93.00;;;;;;5034771;28;20213;-90
2021/06/23 03:03:43;;;;;;;15.40;14.02;;;19.50;92.50;;;;;;5011487;28;20247;-90
2021/06/23 03:06:09;;;;;;;15.55;14.13;;;19.50;93.20;;;;;;5011510;28;20187;-91
2021/06/23 03:08:36;;;;;;;15.48;14.18;;;19.40;91.90;;;;;;5045986;28;20208;-91
2021/06/23 03:11:03;;;;;;;15.15;13.95;;;19.40;91.80;;;;;;5012153;28;20556;-92
2021/06/23 03:13:29;;;;;;;16.30;14.60;;;19.40;91.60;;;;;;5011798;28;20204;-93
2021/06/23 03:15:56;;;;;;;16.85;15.38;;;19.20;92.60;;;;;;5027713;28;20276;-93
2021/06/23 03:18:22;;;;;;;17.00;15.55;;;19.10;93.50;;;;;;5028187;28;20219;-93
2021/06/23 03:20:49;;;;;;;17.33;15.82;;;19.00;93.80;;;;;;5028225;28;20180;-93
2021/06/23 03:23:15;;;;;;;17.20;15.80;;;18.90;94.80;;;;;;5027167;28;20643;-92
2021/06/23 03:25:41;;;;;;;17.15;15.50;;;18.80;94.90;;;;;;5010094;28;20181;-90
2021/06/23 03:28:07;;;;;;;18.55;16.85;;;18.80;94.60;;;;;;5010130;28;20188;-90
2021/06/23 03:30:33;;;;;;;18.80;17.13;;;18.90;95.50;;;;;;5026414;28;20180;-92
2021/06/23 03:32:59;;;;;;;17.85;16.10;;;18.80;95.20;;;;;;5027367;28;20207;-90
2021/06/23 03:35:26;;;;;;;15.45;14.13;;;18.80;95.20;;;;;;5049091;28;20215;-92
2021/06/23 03:37:54;;;;;;;15.45;13.88;;;18.80;95.60;;;;;;5057831;28;20177;-91
2021/06/23 03:40:21;;;;;;;15.90;14.50;;;18.90;95.30;;;;;;5056170;28;20216;-91
2021/06/23 03:42:48;;;;;;;15.30;14.10;;;19.00;93.70;;;;;;5032217;28;20227;-91
2021/06/23 03:45:15;;;;;;;15.18;13.80;;;18.80;94.50;;;;;;5029023;28;20192;-92
2021/06/23 03:47:42;;;;;;;15.52;14.13;;;18.50;95.70;;;;;;5030464;28;20672;-92
2021/06/23 03:50:10;;;;;;;14.63;13.27;;;18.60;96.20;;;;;;5047569;28;20196;-93
2021/06/23 03:52:36;;;;;;;14.30;13.07;;;18.80;95.40;;;;;;5030529;28;20220;-93
2021/06/23 03:55:03;;;;;;;14.88;13.77;;;18.80;95.00;;;;;;5049394;28;20199;-93
2021/06/23 03:57:29;;;;;;;15.63;14.13;;;18.80;94.70;;;;;;5049157;28;20176;-93
2021/06/23 03:59:55;;;;;;;14.88;13.57;;;18.80;95.00;;;;;;5032064;28;20219;-94
2021/06/23 04:02:20;;;;;;;14.48;13.27;;;18.80;95.50;;;;;;5032239;28;20215;-94
2021/06/23 04:04:46;;;;;;;15.73;14.13;;;18.70;94.90;;;;;;5032737;28;20188;-93
2021/06/23 04:07:13;;;;;;;15.70;14.32;;;18.60;94.30;;;;;;5047456;28;20199;-93
2021/06/23 04:09:39;;;;;;;14.80;13.40;;;18.60;95.50;;;;;;5030836;28;20218;-94
2021/06/23 04:12:06;;;;;;;14.60;13.30;;;18.60;95.70;;;;;;5029525;28;20295;-93
2021/06/23 04:14:31;;;;;;;16.85;15.32;;;18.60;95.20;;;;;;5030574;28;20184;-94
2021/06/23 04:16:57;;;;;;;16.45;14.85;;;18.70;94.50;;;;;;5030531;28;20208;-94
2021/06/23 04:19:24;;;;;;;15.68;14.23;;;18.80;94.50;;;;;;5029616;28;20212;-94
2021/06/23 04:21:50;;;;;;;14.48;13.18;;;18.90;94.80;;;;;;5029774;28;20207;-93
2021/06/23 04:24:16;;;;;;;15.65;14.18;;;18.80;94.20;;;;;;5030758;28;20172;-94
2021/06/23 04:26:43;;;;;;;15.20;13.98;;;18.90;93.40;;;;;;5031352;28;20188;-94
2021/06/23 04:29:10;;;;;;;15.00;13.60;;;19.00;93.50;;;;;;5033100;28;20226;-94
2021/06/23 04:31:36;;;;;;;14.30;13.02;;;19.10;93.20;;;;;;5034908;28;20196;-94
2021/06/23 04:34:02;;;;;;;14.30;12.82;;;19.10;92.20;;;;;;5033909;28;20185;-94
2021/06/23 04:36:28;;;;;;;13.75;12.65;;;19.20;92.40;;;;;;5034652;28;20181;-94
2021/06/23 04:38:54;;;;;;;12.57;11.57;;;19.20;93.10;;;;;;5034385;28;20234;-96
2021/06/23 04:41:20;;;;;;;14.73;13.52;;;19.40;92.70;;;;;;5054176;28;20197;-96
2021/06/23 04:43:45;;;;;;;13.50;12.35;;;19.40;90.60;;;;;;5040290;28;20179;-96
2021/06/23 04:46:12;;;;;;;13.90;12.80;;;19.50;91.50;;;;;;5039679;28;20185;-95
2021/06/23 04:48:39;;;;;;;14.00;12.90;;;19.50;90.70;;;;;;5053213;28;20211;-93
2021/06/23 04:51:05;;;;;;;14.68;13.27;;;19.50;90.50;;;;;;5036233;28;20205;-94
2021/06/23 04:53:31;;;;;;;14.75;13.30;;;19.60;89.80;;;;;;5039573;28;20182;-94
2021/06/23 04:55:58;;;;;;;15.18;13.90;;;19.70;89.40;;;;;;5022980;28;20270;-94
2021/06/23 04:58:24;;;;;;;14.75;13.45;;;19.80;89.20;;;;;;5035469;28;20181;-94
2021/06/23 05:00:50;;;;;;;16.00;13.48;;;19.70;89.30;;;;;;5033088;28;20265;-94
2021/06/23 05:03:16;;;;;;;15.45;14.05;;;19.60;88.50;;;;;;5015910;28;20165;-94
2021/06/23 05:05:42;;;;;;;13.57;12.27;;;19.50;89.40;;;;;;5032667;28;20571;-94
2021/06/23 05:08:08;;;;;;;15.32;13.93;;;19.40;90.40;;;;;;5051011;28;20247;-94
2021/06/23 05:10:34;;;;;;;16.40;14.75;;;19.50;89.80;;;;;;5033019;28;20650;-95
2021/06/23 05:13:01;;;;;;;15.20;13.82;;;19.40;89.60;;;;;;5033527;28;20189;-94
2021/06/23 05:15:27;;;;;;;13.93;12.73;;;19.30;89.70;;;;;;5032035;28;20197;-94
2021/06/23 05:17:53;;;;;;;15.82;14.32;;;19.20;90.30;;;;;;5033227;28;20181;-94
2021/06/23 05:20:21;;;;;;;15.95;14.35;;;19.20;91.10;;;;;;5050662;28;20215;-94
2021/06/23 05:22:48;;;;;;;15.60;14.20;;;19.20;89.90;;;;;;5031419;28;20193;-93
2021/06/23 05:25:16;;;;;;;15.43;14.10;;;19.30;89.30;;;;;;5050155;28;20181;-93
2021/06/23 05:27:43;;;;;;;14.93;13.43;;;19.20;89.80;;;;;;5031290;28;20177;-94
2021/06/23 05:30:10;;;;;;;15.85;14.45;;;19.20;90.30;;;;;;5030584;28;20635;-93
2021/06/23 05:32:36;;;;;;;16.13;14.73;;;19.20;89.70;;;;;;5042415;28;20196;-94
2021/06/23 05:35:03;;;;;;;13.57;12.27;;;19.20;91.00;;;;;;5058232;28;20471;-93
2021/06/23 05:37:29;;;;;;;16.10;14.80;;;19.30;91.40;;;;;;5029435;28;20559;-92
2021/06/23 05:39:54;;;;;;;18.02;16.55;;;19.20;90.30;;;;;;5012884;28;20404;-94
2021/06/23 05:42:20;;;;;;;17.85;15.73;;;19.20;90.10;;;;;;5025741;28;20228;-94
2021/06/23 05:44:46;;;;;;;17.55;15.98;;;19.10;91.20;;;;;;5042132;28;20193;-92
2021/06/23 05:47:12;;;;;;;16.60;15.10;;;19.10;90.90;;;;;;5011158;28;20687;-92
2021/06/23 05:49:37;;;;;;;18.40;16.77;;;19.20;90.60;;;;;;5009995;28;20195;-92
2021/06/23 05:52:04;;;;;;;19.13;17.20;;;19.20;89.40;;;;;;5010054;28;20216;-92
2021/06/23 05:54:33;;;;;;;19.10;17.40;;;19.20;89.80;;;;;;5010377;28;20184;-93
2021/06/23 05:56:59;;;;;;;19.30;16.60;;;19.10;90.90;;;;;;5027095;28;20651;-92
2021/06/23 05:59:24;;;;;;;18.63;16.85;;;19.20;90.80;;;;;;5010958;28;20216;-91
2021/06/23 06:01:50;;;;;;;18.60;16.63;;;19.20;89.90;;;;;;5011117;28;20710;-92
2021/06/23 06:04:16;;;;;;;20.15;18.30;;;19.30;90.90;;;;;;5016595;28;20272;-91
2021/06/23 06:06:42;;;;;;;22.27;20.30;;;19.30;90.10;;;;;;5009441;28;20178;-93
2021/06/23 06:09:08;;;;;;;21.10;19.30;;;19.40;90.10;;;;;;5027400;28;20188;-92
2021/06/23 06:11:33;;;;;;;22.05;20.25;;;19.50;89.50;;;;;;5011722;28;20217;-93
2021/06/23 06:13:59;;;;;;;21.15;19.42;;;19.60;88.60;;;;;;5011802;28;20181;-92
2021/06/23 06:16:25;;;;;;;24.33;22.02;;;19.80;87.80;;;;;;5010706;28;20284;-92
2021/06/23 06:18:51;;;;;;;22.75;20.77;;;19.80;87.80;;;;;;5010145;28;20233;-93
2021/06/23 06:21:16;;;;;;;22.27;20.38;;;19.80;88.60;;;;;;5027265;28;20193;-92
2021/06/23 06:23:42;;;;;;;23.30;21.38;;;19.80;88.60;;;;;;5026322;28;20177;-93
2021/06/23 06:26:08;;;;;;;24.92;22.83;;;20.00;88.10;;;;;;5025571;28;20249;-92
2021/06/23 06:28:39;;;;;;;24.83;22.58;;;20.00;87.60;;;;;;5044613;28;20181;-93
2021/06/23 06:31:05;;;;;;;23.27;21.40;;;19.80;89.90;;;;;;5025888;28;20292;-92
2021/06/23 06:33:31;;;;;;;24.67;22.58;;;19.90;88.60;;;;;;5025767;28;20188;-93
2021/06/23 06:35:57;;;;;;;26.35;24.15;;;20.00;90.40;;;;;;5024835;28;20234;-93
2021/06/23 06:38:23;;;;;;;26.38;24.05;;;20.10;89.00;;;;;;5042841;28;20184;-92
2021/06/23 06:40:49;;;;;;;25.02;22.85;;;20.20;88.50;;;;;;5043348;28;20195;-92
2021/06/23 06:43:15;;;;;;;24.73;22.52;;;20.10;88.40;;;;;;5008967;28;20251;-92
2021/06/23 06:45:41;;;;;;;24.77;22.55;;;20.20;89.80;;;;;;5042601;28;20259;-92
2021/06/23 06:48:07;;;;;;;22.90;21.10;;;20.20;89.30;;;;;;5022994;28;20204;-92
2021/06/23 06:50:33;;;;;;;22.65;20.65;;;20.30;89.70;;;;;;5041134;28;20210;-92
2021/06/23 06:52:59;;;;;;;21.80;20.08;;;20.10;89.20;;;;;;5043423;28;20203;-92
2021/06/23 06:55:25;;;;;;;24.50;22.40;;;20.20;90.30;;;;;;5042775;28;20199;-92
2021/06/23 06:57:55;;;;;;;23.10;21.02;;;20.00;89.60;;;;;;5023731;28;20331;-92
2021/06/23 07:00:22;;;;;;;23.92;21.75;;;19.80;91.20;;;;;;5041394;28;20208;-92
2021/06/23 07:02:48;;;;;;;23.98;21.98;;;19.80;90.00;;;;;;5023798;28;20205;-92
2021/06/23 07:05:15;;;;;;;24.10;21.73;;;19.90;91.00;;;;;;5023939;28;20242;-92
2021/06/23 07:07:40;;;;;;;27.45;24.95;;;20.00;90.70;;;;;;5023900;28;20537;-91
2021/06/23 07:10:07;;;;;;;28.85;26.10;;;19.90;89.90;;;;;;5009868;28;20247;-91
2021/06/23 07:12:33;;;;;;;26.50;24.38;;;19.80;89.40;;;;;;5028314;28;20205;-92
2021/06/23 07:14:59;;;;;;;23.58;21.63;;;19.80;89.10;;;;;;5023046;28;20189;-92
2021/06/23 07:17:24;;;;;;;24.02;21.92;;;19.70;88.60;;;;;;5023757;28;20189;-92
2021/06/23 07:19:50;;;;;;;24.58;22.25;;;19.50;89.90;;;;;;5024145;28;20250;-92
2021/06/23 07:22:16;;;;;;;23.65;21.55;;;19.40;90.30;;;;;;5023013;28;20217;-92
2021/06/23 07:24:42;;;;;;;23.45;21.40;;;19.40;90.90;;;;;;5007114;28;20200;-92
2021/06/23 07:27:07;;;;;;;22.60;20.75;;;19.40;90.40;;;;;;5003690;28;20577;-92
2021/06/23 07:29:33;;;;;;;25.40;23.30;;;19.40;90.70;;;;;;5005832;28;20560;-91
2021/06/23 07:37:37;;;;;;;24.20;22.30;;;20.00;88.70;;;;;;5042064;28;20226;-92
2021/06/23 07:40:03;;;;;;;25.17;22.52;;;20.10;88.00;;;;;;5023310;28;20220;-91
2021/06/23 07:42:29;;;;;;;24.25;22.08;;;20.20;88.20;;;;;;5023186;28;20293;-91
2021/06/23 07:45:00;;;;;;;24.27;22.17;;;20.20;88.00;;;;;;5023372;28;20215;-91
2021/06/23 07:47:28;;;;;;;25.55;23.17;;;20.20;87.10;;;;;;5024741;28;20189;-91
2021/06/23 07:49:54;;;;;;;28.15;25.45;;;20.20;86.50;;;;;;5022827;28;20213;-91
2021/06/23 07:52:27;;;;;;;25.77;23.58;;;20.30;87.70;;;;;;5007611;28;20221;-91
2021/06/23 08:10:48;;;;;;;25.77;23.58;;;20.30;86.90;;;;;;5039227;28;20568;-89
2021/06/23 08:13:15;;;;;;;24.73;22.90;;;20.40;86.50;;;;;;5039888;28;20656;-90
2021/06/23 08:15:43;;;;;;;25.77;23.67;;;20.50;86.20;;;;;;5006290;28;20229;-91
2021/06/23 08:18:10;;;;;;;26.88;24.23;;;20.60;85.20;;;;;;5004968;28;20197;-91
2021/06/23 08:20:37;;;;;;;24.13;22.08;;;20.50;86.00;;;;;;5039449;28;20249;-91
2021/06/23 08:23:04;;;;;;;27.42;24.88;;;20.60;86.90;;;;;;5027980;28;20163;-94
2021/06/23 08:25:30;;;;;;;26.08;23.85;;;20.60;86.70;;;;;;5056115;28;20185;-95
2021/06/23 08:27:55;;;;;;;25.10;23.10;;;20.80;86.90;;;;;;5045422;28;20270;-90
2021/06/23 08:30:22;;;;;;;26.85;24.50;;;20.80;86.30;;;;;;5041542;28;20600;-91
2021/06/23 08:32:48;;;;;;;26.58;24.40;;;21.00;86.10;;;;;;5013578;28;20213;-92
2021/06/23 08:35:14;;;;;;;28.45;26.25;;;21.10;85.30;;;;;;5056992;28;20215;-95
2021/06/23 08:37:41;;;;;;;28.63;26.30;;;21.10;83.90;;;;;;5031156;28;20192;-92
2021/06/23 08:40:10;;;;;;;29.55;27.15;;;21.00;84.40;;;;;;5022843;28;20223;-90
2021/06/23 08:42:36;;;;;;;28.27;25.85;;;20.80;84.00;;;;;;5011457;28;20204;-90
2021/06/23 08:45:04;;;;;;;26.80;24.77;;;20.80;84.60;;;;;;5025237;28;20195;-91
2021/06/23 08:47:30;;;;;;;28.40;26.20;;;20.70;84.80;;;;;;5007528;28;20440;-90
2021/06/23 08:49:57;;;;;;;27.48;25.15;;;20.80;84.30;;;;;;5037851;28;20673;-90
2021/06/23 08:52:23;;;;;;;29.50;27.25;;;20.90;84.50;;;;;;5022113;28;20208;-92
2021/06/23 08:54:56;;;;;;;30.85;28.27;;;21.00;83.30;;;;;;5021803;28;20189;-89
2021/06/23 08:57:21;;;;;;;28.67;26.48;;;21.10;83.30;;;;;;5039279;28;20180;-89
2021/06/23 08:59:47;;;;;;;28.33;26.05;;;21.20;82.70;;;;;;5039038;28;20217;-90
2021/06/23 09:02:14;;;;;;;27.25;25.15;;;21.10;83.30;;;;;;5020590;28;20265;-90
2021/06/23 09:05:03;;;;;;;26.80;24.73;;;21.30;83.70;;;;;;5038978;28;20217;-91
2021/06/23 09:07:58;;;;;;;27.33;25.10;;;21.30;83.10;;;;;;5029441;28;20200;-88
2021/06/23 09:10:23;;;;;;;27.33;24.95;;;21.50;81.50;;;;;;5015591;28;20193;-88
2021/06/23 09:13:04;;;;;;;27.23;25.02;;;21.60;81.40;;;;;;5037964;28;20200;-89
2021/06/23 09:15:48;;;;;;;27.90;25.65;;;21.50;82.20;;;;;;5038099;28;20195;-89
2021/06/23 09:18:46;;;;;;;25.33;23.42;;;21.50;82.30;;;;;;5036303;28;20188;-90
2021/06/23 09:21:14;;;;;;;25.15;23.15;;;21.50;82.10;;;;;;5021647;28;20229;-90
2021/06/23 09:23:54;;;;;;;25.70;23.67;;;21.90;81.30;;;;;;5040421;28;20215;-90
2021/06/23 09:26:33;;;;;;;24.45;22.52;;;22.20;80.10;;;;;;5006878;28;20193;-90
2021/06/23 09:29:20;;;;;;;19.88;18.27;;;22.50;79.80;;;;;;5040610;28;20257;-90
2021/06/23 09:32:03;;;;;;;21.52;19.80;;;22.80;77.20;;;;;;5023809;28;20216;-90
2021/06/23 09:34:45;;;;;;;20.02;18.38;;;23.20;75.90;;;;;;5040468;28;20594;-90
2021/06/23 09:37:31;;;;;;;19.02;17.40;;;23.40;73.20;;;;;;5042972;28;20223;-90
2021/06/23 09:40:18;;;;;;;16.80;15.50;;;23.60;73.20;;;;;;5043734;28;20205;-90
2021/06/23 09:42:47;;;;;;;16.10;14.80;;;23.60;72.50;;;;;;5024572;28;20665;-90
2021/06/23 09:45:15;;;;;;;15.93;14.82;;;23.70;72.90;;;;;;5044554;28;20223;-89
2021/06/23 09:47:44;;;;;;;16.17;14.88;;;23.60;72.10;;;;;;5025793;28;20185;-91
2021/06/23 09:50:18;;;;;;;19.23;17.73;;;23.70;72.10;;;;;;5042626;28;20211;-91
2021/06/23 09:52:56;;;;;;;18.02;16.67;;;23.80;71.00;;;;;;5024972;28;20231;-90
2021/06/23 09:55:41;;;;;;;17.52;16.13;;;23.50;72.10;;;;;;5025128;28;20185;-90
2021/06/23 09:58:24;;;;;;;18.98;17.38;;;23.90;71.70;;;;;;5041254;28;20667;-91
2021/06/23 10:01:01;;;;;;;16.38;15.07;;;24.10;69.40;;;;;;5028697;28;20275;-90
2021/06/23 10:04:37;;;;;;;17.17;15.77;;;23.90;69.20;;;;;;5027208;28;20218;-90
2021/06/23 10:06:56;;;;;;;16.08;14.88;;;23.90;70.70;;;;;;5040655;28;20228;-90
2021/06/23 10:09:27;;;;;;;14.55;13.55;;;24.10;71.70;;;;;;5043974;28;20564;-90
2021/06/23 10:12:06;;;;;;;14.85;13.65;;;24.10;70.70;;;;;;5043192;28;20552;-90
2021/06/23 10:14:38;;;;;;;15.52;14.25;;;24.00;69.90;;;;;;5043405;28;20667;-91
2021/06/23 10:17:04;;;;;;;12.65;11.75;;;24.20;70.40;;;;;;5043476;28;20196;-90
2021/06/23 10:19:31;;;;;;;16.70;15.30;;;24.50;68.90;;;;;;5003876;28;20231;-90
2021/06/23 10:21:59;;;;;;;15.05;13.95;;;24.70;68.20;;;;;;5026567;28;20201;-90
2021/06/23 10:24:28;;;;;;;15.95;14.75;;;24.90;70.60;;;;;;5025036;28;20185;-89
2021/06/23 10:26:54;;;;;;;13.65;12.75;;;24.80;67.30;;;;;;5041340;28;20267;-89
2021/06/23 10:29:29;;;;;;;14.95;13.82;;;25.00;68.60;;;;;;5021906;28;20232;-89
2021/06/23 10:31:55;;;;;;;13.88;12.95;;;24.80;67.80;;;;;;5021324;28;20221;-90
2021/06/23 10:34:21;;;;;;;12.70;11.90;;;24.60;68.10;;;;;;5036032;28;20259;-90
2021/06/23 10:36:49;;;;;;;12.10;11.10;;;24.50;69.10;;;;;;5004991;28;20268;-91
2021/06/23 10:39:15;;;;;;;12.48;11.57;;;24.50;69.10;;;;;;5007622;28;20239;-90
2021/06/23 10:41:47;;;;;;;11.88;10.98;;;24.70;69.70;;;;;;5042116;28;20228;-90
2021/06/23 10:44:35;;;;;;;11.10;10.20;;;24.90;66.80;;;;;;5042845;28;20193;-89
2021/06/23 10:47:03;;;;;;;11.32;10.43;;;24.90;68.30;;;;;;5043057;28;20185;-90
2021/06/23 10:49:42;;;;;;;11.48;10.43;;;24.80;67.20;;;;;;5038951;28;20185;-90
2021/06/23 10:52:20;;;;;;;10.90;9.80;;;25.00;66.30;;;;;;5020439;28;20205;-90
2021/06/23 10:54:59;;;;;;;10.95;10.05;;;25.20;65.40;;;;;;5040222;28;20192;-90
2021/06/23 10:57:26;;;;;;;9.75;8.95;;;25.20;66.90;;;;;;5038089;28;20196;-90
2021/06/23 10:59:53;;;;;;;9.85;8.95;;;24.90;66.10;;;;;;5038343;28;20212;-89
2021/06/23 11:02:40;;;;;;;8.82;8.23;;;25.00;65.80;;;;;;5038953;28;20228;-89
2021/06/23 11:05:19;;;;;;;9.02;8.32;;;25.00;66.70;;;;;;5040096;28;20196;-89
2021/06/23 11:07:55;;;;;;;8.85;8.25;;;25.60;64.60;;;;;;4990960;28;20208;-89
2021/06/23 11:10:38;;;;;;;9.50;8.70;;;25.90;62.10;;;;;;5017190;28;20189;-89
2021/06/23 11:13:06;;;;;;;8.02;7.40;;;26.10;59.00;;;;;;5005309;28;20640;-89
2021/06/23 11:15:31;;;;;;;8.43;7.55;;;26.60;58.30;;;;;;5022827;28;20185;-89
2021/06/23 11:18:22;;;;;;;7.78;7.18;;;26.50;59.60;;;;;;5027249;28;20170;-89
2021/06/23 11:20:59;;;;;;;8.00;7.43;;;27.00;56.70;;;;;;5022188;28;20202;-87
2021/06/23 11:23:46;;;;;;;6.90;6.32;;;27.60;55.20;;;;;;5033219;28;20229;-88
2021/06/23 11:26:21;;;;;;;7.70;7.13;;;27.90;52.80;;;;;;5018686;28;20409;-87
2021/06/23 11:29:10;;;;;;;7.38;6.88;;;27.70;54.40;;;;;;5010666;28;20208;-88
2021/06/23 11:32:03;;;;;;;7.75;7.25;;;27.40;55.90;;;;;;5018300;28;20207;-88
2021/06/23 11:34:43;;;;;;;8.27;7.68;;;27.10;58.40;;;;;;5010787;28;20205;-88
2021/06/23 11:37:11;;;;;;;7.78;7.07;;;26.90;57.60;;;;;;5021467;28;20652;-88
2021/06/23 11:39:37;;;;;;;7.93;7.13;;;27.00;58.70;;;;;;5020212;28;20656;-88
2021/06/23 11:42:03;;;;;;;6.97;6.47;;;27.30;57.30;;;;;;5019641;28;20706;-88
2021/06/23 11:44:30;;;;;;;8.23;7.60;;;27.30;56.80;;;;;;5019833;28;20182;-88
2021/06/23 11:46:58;;;;;;;9.10;8.18;;;27.10;59.70;;;;;;5004961;28;20174;-88
2021/06/23 11:49:24;;;;;;;9.38;8.70;;;26.60;59.70;;;;;;5018679;28;20180;-88
2021/06/23 11:51:50;;;;;;;7.85;7.28;;;26.50;59.10;;;;;;5015301;28;20202;-88
2021/06/23 11:54:17;;;;;;;9.88;8.38;;;26.90;59.70;;;;;;5015165;28;20217;-88
2021/06/23 11:56:43;;;;;;;8.60;7.90;;;27.10;58.60;;;;;;4998842;28;20243;-89
2021/06/23 11:59:09;;;;;;;8.50;7.80;;;27.50;57.00;;;;;;5015666;28;20600;-89
2021/06/23 12:01:35;;;;;;;8.30;7.68;;;28.00;56.70;;;;;;5017239;28;20241;-88
2021/06/23 12:04:02;;;;;;;8.80;8.10;;;28.20;53.60;;;;;;5017869;28;20209;-89
2021/06/23 12:06:28;;;;;;;8.25;7.65;;;28.30;53.10;;;;;;5016967;28;20186;-89
2021/06/23 12:08:53;;;;;;;8.68;8.02;;;28.20;53.40;;;;;;4998566;28;20213;-88
2021/06/23 12:11:19;;;;;;;8.27;7.68;;;28.50;52.60;;;;;;5014870;28;20232;-88
2021/06/23 12:13:45;;;;;;;8.45;7.85;;;28.40;54.10;;;;;;5016024;28;20189;-88
2021/06/23 12:16:10;;;;;;;8.40;7.80;;;28.60;54.30;;;;;;5013573;28;20201;-88
2021/06/23 12:18:37;;;;;;;7.45;6.95;;;28.60;52.60;;;;;;4983412;28;20572;-88
2021/06/23 12:21:03;;;;;;;8.00;7.43;;;28.40;52.30;;;;;;5018778;28;20753;-89
2021/06/23 12:23:28;;;;;;;8.30;7.35;;;28.40;52.00;;;;;;5019089;28;20245;-88
2021/06/23 12:25:54;;;;;;;8.15;7.55;;;28.10;54.10;;;;;;5003628;28;20220;-89
2021/06/23 12:28:20;;;;;;;8.05;7.45;;;28.40;54.60;;;;;;5020524;28;20190;-88
2021/06/23 12:30:47;;;;;;;7.22;6.72;;;28.70;52.80;;;;;;5019723;28;20327;-88
2021/06/23 12:33:14;;;;;;;8.25;7.65;;;28.80;51.00;;;;;;5004062;28;20273;-88
2021/06/23 12:35:42;;;;;;;7.63;7.13;;;28.80;50.20;;;;;;5004913;28;20192;-89
2021/06/23 12:38:10;;;;;;;7.25;6.65;;;29.30;50.50;;;;;;5020284;28;20189;-89
2021/06/23 12:40:37;;;;;;;7.03;6.55;;;29.90;48.80;;;;;;5002093;28;20223;-88
2021/06/23 12:43:09;;;;;;;7.40;6.80;;;29.80;49.00;;;;;;5019467;28;20201;-89
2021/06/23 12:45:35;;;;;;;7.20;6.70;;;29.60;50.00;;;;;;5003001;28;20206;-89
2021/06/23 12:48:03;;;;;;;7.80;7.20;;;29.70;49.50;;;;;;5002461;28;20549;-88
2021/06/23 12:50:29;;;;;;;7.72;7.25;;;29.90;47.90;;;;;;5019397;28;20548;-89
2021/06/23 12:52:55;;;;;;;8.05;7.38;;;30.00;48.20;;;;;;5022128;28;20197;-88
2021/06/23 12:55:22;;;;;;;7.15;6.65;;;30.20;47.70;;;;;;5020357;28;20716;-89
2021/06/23 12:57:48;;;;;;;7.30;6.80;;;30.30;46.30;;;;;;5016717;28;20182;-89
2021/06/23 13:00:16;;;;;;;7.90;7.40;;;30.00;46.80;;;;;;5018387;28;20232;-89
2021/06/23 13:02:44;;;;;;;7.63;7.03;;;30.30;47.40;;;;;;5019922;28;20695;-89